To NAV CANADA Home Page Login to a new session Search on AWWS site Disclaimer Vers la page française équivalente Tips FAQ What's new on the site To the Forecasts and Observations / NOTAM section To "File a Flight Plan" website Publications and other links Update of the User's profile FIC Telephone Numbers My Weather Data Folder Route Weather Data Regional Weather Data Local Weather Data To the Forecasts and Observations / NOTAM section
Request Generated 07/30/2021 at 08:07:04 UTC . Weather information available at that time is displayed.


Go to a specific product

Save this request

NOTAM

NOTAM


SIGMET
To the Product Selector

SIGMETS GFACN32

WSCN32 CWEG 300624
SIGMET D2 VALID 300620/300700 CWEG-
CZWG WINNIPEG FIR CNCL SIGMET D1 300300/300700
RMK GFACN32 GFACN33
END/WSCN23/CWAO

WSCN32 CWEG 300624
SIGMET G4 VALID 300620/300755 CWEG-
CZWG WINNIPEG FIR CNCL SIGMET G3 300355/300755
RMK GFACN32
END/WSCN23/CWAO



AIRMET
To the Product Selector

AIRMETS GFACN32

WACN32 CWEG 300623
AIRMET D1 VALID 300620/301020 CWEG-
CZEG EDMONTON FIR ISOLD TS OBS WTN 15 NM OF LINE /N4919 W11304/20 SW CYQL -
/N4919 W11119/45 SW CYXH TOP FL340 QS NC
RMK GFACN32
END/WACN22/CWAO



PIREP
To the Product Selector

FIR_WINNIPEG (WG)

WG - PIREP not available



METAR/TAF
To the Product Selector

REGINA INTL/SK    

METAR CYQR 300800Z 12008KT 15SM FEW140 BKN240 16/11 A3007 RMK AC2CI4 SLP183 DENSITY ALT 2400FT=
METAR CYQR 300700Z 16009KT 15SM BKN140 BKN220 18/11 A3008 RMK AC5CI2 SLP186 DENSITY ALT 2500FT=
METAR CYQR 300600Z 15010KT 15SM SCT220 18/11 A3009 RMK CI3 SLP188 DENSITY ALT 2500FT=

TAF CYQR 300538Z 3006/3106 15010KT P6SM FEW120 SCT270 TEMPO 3006/3013
BKN120
FM301300 VRB03KT P6SM FEW110
BECMG 3014/3016 34010KT
FM301800 35012G22KT P6SM FEW080
FM310200 36010KT P6SM SCT090
BECMG 3103/3105 06008KT
RMK NXT FCST BY 301200Z=

MOOSE JAW/AIR VICE MARSHAL C.M. MCEWEN/SK    

CYMJ - METAR not available

*** REMARK        : Forecast period has ended; this was the last TAF issued
*** REMARQUE : La période de prévision est échue; ceci était le dernier TAF qui a été émis
TAF AMD CYMJ 292318Z 2918/3006 FCST CNCLD DUE END OF FLYING PROGRAM
RMK NXT FCST WILL BE ISSUED AT 301115Z=


RADAR PCPN RATE
To the Product Selector
Pacific Canada      Western Canada     

SATELLITE VISIBLE
To the Product Selector
West Canada      

SATELLITE INFRARED
To the Product Selector
West Canada     

GRAPHICAL FA CLOUDS & WEATHER FORECASTS
To the Product Selector
Graphical FA gfacn32      

GRAPHICAL FA ICING, TURBULENCE & FREEZING LEVEL FORECASTS
To the Product Selector
Graphical FA gfacn32      

FDTEXT Low Level FD. Temperatures are not forecast for the 3,000-foot level.
To the Product Selector
STN YQR - REGINA. SASK for use 3000 6000 9000 12000 18000
FDCN01 CWAO FCST BASED ON 300000 DATA VALID 300600 05-09 2518+19 2516+12 2515+04 2930-08
FDCN02 CWAO FCST BASED ON 300000 DATA VALID 301200 09-18 3508+17 2812+11 2817+04 3125-09
FDCN03 CWAO FCST BASED ON 300000 DATA VALID 310000 18-05 3417+17 3419+09 3425+02 3137-08



Your time UTC time
Weather data provided by Environment Canada and NAV CANADA